sensor_id;sensor_type;location;lat;lon;timestamp;temperature;humidity
43920;DHT22;29578;51.946;5.874;2023-04-25T12:19:06;10.90;76.20
43920;DHT22;29578;51.946;5.874;2023-04-25T12:21:32;10.50;78.40
43920;DHT22;29578;51.946;5.874;2023-04-25T12:24:10;10.30;81.40
43920;DHT22;29578;51.946;5.874;2023-04-25T12:26:53;10.20;83.80
43920;DHT22;29578;51.946;5.874;2023-04-25T12:29:27;10.00;85.20
43920;DHT22;29578;51.946;5.874;2023-04-25T12:31:54;9.90;86.20
43920;DHT22;29578;51.946;5.874;2023-04-25T12:34:21;9.80;86.80
43920;DHT22;29578;51.946;5.874;2023-04-25T12:36:47;9.70;87.30
43920;DHT22;29578;51.946;5.874;2023-04-25T12:39:21;9.70;87.60
43920;DHT22;29578;51.946;5.874;2023-04-25T12:41:48;9.60;87.50
43920;DHT22;29578;51.946;5.874;2023-04-25T12:44:14;9.60;87.70
43920;DHT22;29578;51.946;5.874;2023-04-25T12:46:40;9.70;87.50
43920;DHT22;29578;51.946;5.874;2023-04-25T12:49:07;9.70;87.40
43920;DHT22;29578;51.946;5.874;2023-04-25T12:51:34;9.80;87.30
43920;DHT22;29578;51.946;5.874;2023-04-25T12:54:01;10.00;86.90
43920;DHT22;29578;51.946;5.874;2023-04-25T12:56:27;10.20;86.70
43920;DHT22;29578;51.946;5.874;2023-04-25T12:58:53;10.40;86.20
43920;DHT22;29578;51.946;5.874;2023-04-25T13:01:20;10.50;85.50
43920;DHT22;29578;51.946;5.874;2023-04-25T13:03:46;10.60;85.10
43920;DHT22;29578;51.946;5.874;2023-04-25T13:06:12;10.60;84.60
43920;DHT22;29578;51.946;5.874;2023-04-25T13:08:38;10.80;84.50
43920;DHT22;29578;51.946;5.874;2023-04-25T13:11:05;10.90;83.90
43920;DHT22;29578;51.946;5.874;2023-04-25T13:13:31;10.90;83.70
43920;DHT22;29578;51.946;5.874;2023-04-25T13:15:57;11.00;83.40
43920;DHT22;29578;51.946;5.874;2023-04-25T13:18:23;11.10;82.90
43920;DHT22;29578;51.946;5.874;2023-04-25T13:20:53;11.20;82.40
43920;DHT22;29578;51.946;5.874;2023-04-25T13:23:19;11.20;82.30
43920;DHT22;29578;51.946;5.874;2023-04-25T13:25:46;11.30;82.10
43920;DHT22;29578;51.946;5.874;2023-04-25T13:28:12;11.20;81.80
43920;DHT22;29578;51.946;5.874;2023-04-25T13:30:38;11.00;81.80
43920;DHT22;29578;51.946;5.874;2023-04-25T13:33:03;10.90;82.20
43920;DHT22;29578;51.946;5.874;2023-04-25T13:35:30;10.80;82.50
43920;DHT22;29578;51.946;5.874;2023-04-25T13:37:56;10.70;82.70
43920;DHT22;29578;51.946;5.874;2023-04-25T13:40:22;10.80;82.90
43920;DHT22;29578;51.946;5.874;2023-04-25T13:42:47;10.80;82.40
43920;DHT22;29578;51.946;5.874;2023-04-25T13:45:13;11.00;82.20
43920;DHT22;29578;51.946;5.874;2023-04-25T13:47:39;11.10;81.60
43920;DHT22;29578;51.946;5.874;2023-04-25T13:50:05;11.10;81.20
43920;DHT22;29578;51.946;5.874;2023-04-25T13:52:32;11.00;80.90
43920;DHT22;29578;51.946;5.874;2023-04-25T13:54:58;10.90;81.10
43920;DHT22;29578;51.946;5.874;2023-04-25T13:57:24;10.90;81.10
43920;DHT22;29578;51.946;5.874;2023-04-25T13:59:50;10.90;81.10
43920;DHT22;29578;51.946;5.874;2023-04-25T14:02:16;11.00;81.00
43920;DHT22;29578;51.946;5.874;2023-04-25T14:04:42;11.00;80.60
43920;DHT22;29578;51.946;5.874;2023-04-25T14:07:07;11.10;80.40
43920;DHT22;29578;51.946;5.874;2023-04-25T14:09:34;11.10;80.10
43920;DHT22;29578;51.946;5.874;2023-04-25T14:12:00;11.20;79.90
43920;DHT22;29578;51.946;5.874;2023-04-25T14:14:26;11.30;79.50
43920;DHT22;29578;51.946;5.874;2023-04-25T14:16:51;11.50;79.00
43920;DHT22;29578;51.946;5.874;2023-04-25T14:19:20;11.60;78.50
43920;DHT22;29578;51.946;5.874;2023-04-25T14:21:46;11.70;77.80
43920;DHT22;29578;51.946;5.874;2023-04-25T14:24:13;11.60;77.30
43920;DHT22;29578;51.946;5.874;2023-04-25T14:26:39;11.50;77.20
43920;DHT22;29578;51.946;5.874;2023-04-25T14:29:06;11.30;77.70
43920;DHT22;29578;51.946;5.874;2023-04-25T14:31:32;11.30;78.00
43920;DHT22;29578;51.946;5.874;2023-04-25T14:33:58;11.20;78.00
43920;DHT22;29578;51.946;5.874;2023-04-25T14:36:24;11.10;78.10
43920;DHT22;29578;51.946;5.874;2023-04-25T14:38:52;11.10;78.10
43920;DHT22;29578;51.946;5.874;2023-04-25T14:41:18;11.20;78.20
43920;DHT22;29578;51.946;5.874;2023-04-25T14:43:43;11.30;77.70
43920;DHT22;29578;51.946;5.874;2023-04-25T14:46:10;11.40;77.40
43920;DHT22;29578;51.946;5.874;2023-04-25T14:48:36;11.30;76.70
43920;DHT22;29578;51.946;5.874;2023-04-25T14:51:02;11.30;76.80
43920;DHT22;29578;51.946;5.874;2023-04-25T14:53:28;11.20;76.70
43920;DHT22;29578;51.946;5.874;2023-04-25T14:55:54;11.30;76.50
43920;DHT22;29578;51.946;5.874;2023-04-25T14:58:19;11.30;76.30
43920;DHT22;29578;51.946;5.874;2023-04-25T15:00:46;11.20;76.10
43920;DHT22;29578;51.946;5.874;2023-04-25T15:03:12;11.30;75.60
43920;DHT22;29578;51.946;5.874;2023-04-25T15:05:39;11.30;75.40
43920;DHT22;29578;51.946;5.874;2023-04-25T15:08:05;11.30;75.40
43920;DHT22;29578;51.946;5.874;2023-04-25T15:10:31;11.30;75.50
43920;DHT22;29578;51.946;5.874;2023-04-25T15:12:56;11.40;75.40
43920;DHT22;29578;51.946;5.874;2023-04-25T15:15:22;11.50;75.10
43920;DHT22;29578;51.946;5.874;2023-04-25T15:17:49;11.70;74.70
43920;DHT22;29578;51.946;5.874;2023-04-25T15:20:15;11.80;74.30
43920;DHT22;29578;51.946;5.874;2023-04-25T15:22:42;11.80;73.60
43920;DHT22;29578;51.946;5.874;2023-04-25T15:25:09;11.80;73.60
43920;DHT22;29578;51.946;5.874;2023-04-25T15:27:36;11.80;73.60
43920;DHT22;29578;51.946;5.874;2023-04-25T15:30:06;11.80;73.50
43920;DHT22;29578;51.946;5.874;2023-04-25T15:32:33;11.70;73.50
43920;DHT22;29578;51.946;5.874;2023-04-25T15:35:02;11.50;74.30
43920;DHT22;29578;51.946;5.874;2023-04-25T15:37:28;11.20;74.00
43920;DHT22;29578;51.946;5.874;2023-04-25T15:40:11;11.20;74.60
43920;DHT22;29578;51.946;5.874;2023-04-25T15:42:40;11.20;74.60
43920;DHT22;29578;51.946;5.874;2023-04-25T15:45:08;11.20;74.60
43920;DHT22;29578;51.946;5.874;2023-04-25T15:47:35;11.30;74.50
43920;DHT22;29578;51.946;5.874;2023-04-25T15:50:01;11.40;74.60
43920;DHT22;29578;51.946;5.874;2023-04-25T15:52:27;11.50;74.30
43920;DHT22;29578;51.946;5.874;2023-04-25T15:54:53;11.60;73.90
43920;DHT22;29578;51.946;5.874;2023-04-25T15:57:19;11.50;73.70
43920;DHT22;29578;51.946;5.874;2023-04-25T15:59:45;11.40;73.70
43920;DHT22;29578;51.946;5.874;2023-04-25T16:02:12;11.30;74.00
43920;DHT22;29578;51.946;5.874;2023-04-25T16:04:38;11.30;74.10
43920;DHT22;29578;51.946;5.874;2023-04-25T16:07:04;11.30;74.20
43920;DHT22;29578;51.946;5.874;2023-04-25T16:09:30;11.30;74.20
43920;DHT22;29578;51.946;5.874;2023-04-25T16:11:56;11.30;73.90
43920;DHT22;29578;51.946;5.874;2023-04-25T16:14:22;11.30;73.50
43920;DHT22;29578;51.946;5.874;2023-04-25T16:16:48;11.30;73.40
43920;DHT22;29578;51.946;5.874;2023-04-25T16:19:14;11.20;73.40
43920;DHT22;29578;51.946;5.874;2023-04-25T16:21:39;11.10;73.50
43920;DHT22;29578;51.946;5.874;2023-04-25T16:24:07;11.10;73.70
43920;DHT22;29578;51.946;5.874;2023-04-25T16:26:32;10.90;73.60
43920;DHT22;29578;51.946;5.874;2023-04-25T16:28:58;10.80;73.80
43920;DHT22;29578;51.946;5.874;2023-04-25T16:31:24;10.70;74.00
43920;DHT22;29578;51.946;5.874;2023-04-25T16:33:50;10.60;74.20
43920;DHT22;29578;51.946;5.874;2023-04-25T16:36:16;10.60;74.30
43920;DHT22;29578;51.946;5.874;2023-04-25T16:38:41;10.60;74.40
43920;DHT22;29578;51.946;5.874;2023-04-25T16:41:07;10.60;74.20
43920;DHT22;29578;51.946;5.874;2023-04-25T16:43:33;10.70;74.20
43920;DHT22;29578;51.946;5.874;2023-04-25T16:45:58;10.70;73.90
43920;DHT22;29578;51.946;5.874;2023-04-25T16:48:24;10.80;73.70
43920;DHT22;29578;51.946;5.874;2023-04-25T16:50:51;11.00;73.30
43920;DHT22;29578;51.946;5.874;2023-04-25T16:53:17;11.10;72.60
43920;DHT22;29578;51.946;5.874;2023-04-25T16:55:43;10.90;72.20
43920;DHT22;29578;51.946;5.874;2023-04-25T16:58:09;10.80;72.60
43920;DHT22;29578;51.946;5.874;2023-04-25T17:00:37;10.50;72.80
43920;DHT22;29578;51.946;5.874;2023-04-25T17:03:03;10.40;73.20
43920;DHT22;29578;51.946;5.874;2023-04-25T17:05:29;10.20;73.50
43920;DHT22;29578;51.946;5.874;2023-04-25T17:07:55;10.30;73.70
43920;DHT22;29578;51.946;5.874;2023-04-25T17:10:21;10.20;73.60
43920;DHT22;29578;51.946;5.874;2023-04-25T17:12:47;10.30;73.80
43920;DHT22;29578;51.946;5.874;2023-04-25T17:15:14;10.30;73.50
43920;DHT22;29578;51.946;5.874;2023-04-25T17:17:40;10.30;73.30
43920;DHT22;29578;51.946;5.874;2023-04-25T17:20:06;10.20;73.10
43920;DHT22;29578;51.946;5.874;2023-04-25T17:22:33;10.00;73.20
43920;DHT22;29578;51.946;5.874;2023-04-25T17:25:00;9.90;73.60
43920;DHT22;29578;51.946;5.874;2023-04-25T17:27:26;9.80;73.70
43920;DHT22;29578;51.946;5.874;2023-04-25T17:29:51;9.60;73.80
43920;DHT22;29578;51.946;5.874;2023-04-25T17:32:17;9.50;74.10
43920;DHT22;29578;51.946;5.874;2023-04-25T17:34:43;9.40;74.10
43920;DHT22;29578;51.946;5.874;2023-04-25T17:37:10;9.30;74.20
43920;DHT22;29578;51.946;5.874;2023-04-25T17:39:41;9.30;74.30
43920;DHT22;29578;51.946;5.874;2023-04-25T17:42:07;9.20;74.40
43920;DHT22;29578;51.946;5.874;2023-04-25T17:44:33;9.20;74.40
43920;DHT22;29578;51.946;5.874;2023-04-25T17:46:58;9.10;74.20
43920;DHT22;29578;51.946;5.874;2023-04-25T17:49:25;9.10;74.30
43920;DHT22;29578;51.946;5.874;2023-04-25T17:51:51;9.20;74.90
43920;DHT22;29578;51.946;5.874;2023-04-25T17:54:17;9.20;74.10
43920;DHT22;29578;51.946;5.874;2023-04-25T17:56:43;9.10;74.10
43920;DHT22;29578;51.946;5.874;2023-04-25T17:59:09;9.10;74.10
43920;DHT22;29578;51.946;5.874;2023-04-25T18:01:35;9.00;74.10
43920;DHT22;29578;51.946;5.874;2023-04-25T18:04:02;9.00;74.10
43920;DHT22;29578;51.946;5.874;2023-04-25T18:06:29;9.00;74.30
43920;DHT22;29578;51.946;5.874;2023-04-25T18:08:54;8.90;74.30
43920;DHT22;29578;51.946;5.874;2023-04-25T18:11:22;8.90;74.30
43920;DHT22;29578;51.946;5.874;2023-04-25T18:13:48;8.90;74.40
43920;DHT22;29578;51.946;5.874;2023-04-25T18:16:13;8.90;74.40
43920;DHT22;29578;51.946;5.874;2023-04-25T18:18:39;8.80;74.30
43920;DHT22;29578;51.946;5.874;2023-04-25T18:21:07;8.80;74.40
43920;DHT22;29578;51.946;5.874;2023-04-25T18:23:33;8.80;74.40
43920;DHT22;29578;51.946;5.874;2023-04-25T18:26:01;8.70;74.50
43920;DHT22;29578;51.946;5.874;2023-04-25T18:28:27;8.80;74.60
43920;DHT22;29578;51.946;5.874;2023-04-25T18:30:53;8.70;74.60
43920;DHT22;29578;51.946;5.874;2023-04-25T18:33:19;8.60;74.50
43920;DHT22;29578;51.946;5.874;2023-04-25T18:35:46;8.50;74.50
43920;DHT22;29578;51.946;5.874;2023-04-25T18:38:13;8.40;74.60
43920;DHT22;29578;51.946;5.874;2023-04-25T18:40:39;8.40;74.60
43920;DHT22;29578;51.946;5.874;2023-04-25T18:43:05;8.30;74.60
43920;DHT22;29578;51.946;5.874;2023-04-25T18:45:30;8.30;74.70
43920;DHT22;29578;51.946;5.874;2023-04-25T18:47:56;8.30;74.70
43920;DHT22;29578;51.946;5.874;2023-04-25T18:50:22;8.20;74.70
43920;DHT22;29578;51.946;5.874;2023-04-25T18:52:50;8.20;74.80
43920;DHT22;29578;51.946;5.874;2023-04-25T18:55:16;8.10;74.80
43920;DHT22;29578;51.946;5.874;2023-04-25T18:57:42;8.10;74.90
43920;DHT22;29578;51.946;5.874;2023-04-25T19:00:08;8.00;74.90
43920;DHT22;29578;51.946;5.874;2023-04-25T19:02:35;8.00;74.90
43920;DHT22;29578;51.946;5.874;2023-04-25T19:05:01;8.00;74.80
43920;DHT22;29578;51.946;5.874;2023-04-25T19:07:28;7.90;74.80
43920;DHT22;29578;51.946;5.874;2023-04-25T19:09:55;7.80;74.80
43920;DHT22;29578;51.946;5.874;2023-04-25T19:12:21;7.80;74.80
43920;DHT22;29578;51.946;5.874;2023-04-25T19:14:47;7.80;74.90
43920;DHT22;29578;51.946;5.874;2023-04-25T19:17:13;7.70;74.90
43920;DHT22;29578;51.946;5.874;2023-04-25T19:19:38;7.70;75.10
43920;DHT22;29578;51.946;5.874;2023-04-25T19:22:04;7.60;75.00
43920;DHT22;29578;51.946;5.874;2023-04-25T19:24:30;7.60;75.10
43920;DHT22;29578;51.946;5.874;2023-04-25T19:26:55;7.50;75.20
43920;DHT22;29578;51.946;5.874;2023-04-25T19:29:21;7.50;75.30
43920;DHT22;29578;51.946;5.874;2023-04-25T19:31:47;7.50;75.30
43920;DHT22;29578;51.946;5.874;2023-04-25T19:34:13;7.40;75.40
43920;DHT22;29578;51.946;5.874;2023-04-25T19:36:40;7.40;75.60
43920;DHT22;29578;51.946;5.874;2023-04-25T19:39:07;7.30;75.60
43920;DHT22;29578;51.946;5.874;2023-04-25T19:41:35;7.30;75.60
43920;DHT22;29578;51.946;5.874;2023-04-25T19:44:03;7.20;75.60
43920;DHT22;29578;51.946;5.874;2023-04-25T19:46:30;7.20;75.80
43920;DHT22;29578;51.946;5.874;2023-04-25T19:48:56;7.10;75.90
43920;DHT22;29578;51.946;5.874;2023-04-25T19:51:22;7.20;76.00
43920;DHT22;29578;51.946;5.874;2023-04-25T19:53:48;7.10;76.00
43920;DHT22;29578;51.946;5.874;2023-04-25T19:56:13;7.00;76.00
43920;DHT22;29578;51.946;5.874;2023-04-25T19:58:39;7.00;76.00
43920;DHT22;29578;51.946;5.874;2023-04-25T20:01:05;7.00;76.10
43920;DHT22;29578;51.946;5.874;2023-04-25T20:03:31;6.90;76.20
43920;DHT22;29578;51.946;5.874;2023-04-25T20:05:57;6.90;76.20
43920;DHT22;29578;51.946;5.874;2023-04-25T20:08:23;6.80;76.20
43920;DHT22;29578;51.946;5.874;2023-04-25T20:10:50;6.80;76.20
43920;DHT22;29578;51.946;5.874;2023-04-25T20:13:15;6.70;76.30
43920;DHT22;29578;51.946;5.874;2023-04-25T20:15:42;6.70;76.40
43920;DHT22;29578;51.946;5.874;2023-04-25T20:18:07;6.70;76.50
43920;DHT22;29578;51.946;5.874;2023-04-25T20:20:33;6.70;76.60
43920;DHT22;29578;51.946;5.874;2023-04-25T20:22:59;6.70;76.60
43920;DHT22;29578;51.946;5.874;2023-04-25T20:25:24;6.60;76.60
43920;DHT22;29578;51.946;5.874;2023-04-25T20:27:50;6.60;76.80
43920;DHT22;29578;51.946;5.874;2023-04-25T20:30:16;6.60;76.80
43920;DHT22;29578;51.946;5.874;2023-04-25T20:32:42;6.50;77.00
43920;DHT22;29578;51.946;5.874;2023-04-25T20:35:08;6.40;77.00
43920;DHT22;29578;51.946;5.874;2023-04-25T20:37:34;6.50;77.20
43920;DHT22;29578;51.946;5.874;2023-04-25T20:40:02;6.40;77.20
43920;DHT22;29578;51.946;5.874;2023-04-25T20:42:28;6.40;77.30
43920;DHT22;29578;51.946;5.874;2023-04-25T20:44:54;6.30;77.30
43920;DHT22;29578;51.946;5.874;2023-04-25T20:47:20;6.20;77.40
43920;DHT22;29578;51.946;5.874;2023-04-25T20:49:46;6.20;77.40
43920;DHT22;29578;51.946;5.874;2023-04-25T20:52:12;6.20;77.50
43920;DHT22;29578;51.946;5.874;2023-04-25T20:54:38;6.20;77.60
43920;DHT22;29578;51.946;5.874;2023-04-25T20:57:03;6.20;77.70
43920;DHT22;29578;51.946;5.874;2023-04-25T20:59:29;6.10;77.70
43920;DHT22;29578;51.946;5.874;2023-04-25T21:01:55;6.10;77.80
43920;DHT22;29578;51.946;5.874;2023-04-25T21:04:21;6.00;77.80
43920;DHT22;29578;51.946;5.874;2023-04-25T21:06:47;6.00;77.90
43920;DHT22;29578;51.946;5.874;2023-04-25T21:09:13;5.90;77.90
43920;DHT22;29578;51.946;5.874;2023-04-25T21:11:39;5.90;78.00
43920;DHT22;29578;51.946;5.874;2023-04-25T21:14:05;5.90;78.10
43920;DHT22;29578;51.946;5.874;2023-04-25T21:16:32;6.00;78.20
43920;DHT22;29578;51.946;5.874;2023-04-25T21:19:00;5.80;78.20
43920;DHT22;29578;51.946;5.874;2023-04-25T21:21:27;5.90;78.30
43920;DHT22;29578;51.946;5.874;2023-04-25T21:23:53;5.80;78.20
43920;DHT22;29578;51.946;5.874;2023-04-25T21:26:22;5.80;78.20
43920;DHT22;29578;51.946;5.874;2023-04-25T21:28:47;5.80;78.20
43920;DHT22;29578;51.946;5.874;2023-04-25T21:31:13;5.80;78.90
43920;DHT22;29578;51.946;5.874;2023-04-25T21:33:40;5.70;78.30
43920;DHT22;29578;51.946;5.874;2023-04-25T21:36:05;5.70;78.40
43920;DHT22;29578;51.946;5.874;2023-04-25T21:38:32;5.60;78.40
43920;DHT22;29578;51.946;5.874;2023-04-25T21:40:58;5.60;78.40
43920;DHT22;29578;51.946;5.874;2023-04-25T21:43:23;5.60;78.50
43920;DHT22;29578;51.946;5.874;2023-04-25T21:45:49;5.60;78.50
43920;DHT22;29578;51.946;5.874;2023-04-25T21:48:15;5.60;78.50
43920;DHT22;29578;51.946;5.874;2023-04-25T21:50:40;5.60;78.50
43920;DHT22;29578;51.946;5.874;2023-04-25T21:53:06;5.50;78.50
43920;DHT22;29578;51.946;5.874;2023-04-25T21:55:32;5.60;78.60
43920;DHT22;29578;51.946;5.874;2023-04-25T21:57:58;5.60;78.70
43920;DHT22;29578;51.946;5.874;2023-04-25T22:00:23;5.50;78.70
43920;DHT22;29578;51.946;5.874;2023-04-25T22:02:50;5.40;78.70
43920;DHT22;29578;51.946;5.874;2023-04-25T22:05:17;5.40;78.70
43920;DHT22;29578;51.946;5.874;2023-04-25T22:07:48;5.40;78.80
43920;DHT22;29578;51.946;5.874;2023-04-25T22:10:15;5.40;78.90
43920;DHT22;29578;51.946;5.874;2023-04-25T22:12:41;5.40;78.90
43920;DHT22;29578;51.946;5.874;2023-04-25T22:15:07;5.40;79.00
43920;DHT22;29578;51.946;5.874;2023-04-25T22:17:34;5.30;78.90
43920;DHT22;29578;51.946;5.874;2023-04-25T22:20:00;5.30;79.00
43920;DHT22;29578;51.946;5.874;2023-04-25T22:22:29;5.30;79.20
43920;DHT22;29578;51.946;5.874;2023-04-25T22:24:55;5.20;79.10
43920;DHT22;29578;51.946;5.874;2023-04-25T22:27:20;5.20;79.20
43920;DHT22;29578;51.946;5.874;2023-04-25T22:29:46;5.20;79.30
43920;DHT22;29578;51.946;5.874;2023-04-25T22:32:12;5.20;79.30
43920;DHT22;29578;51.946;5.874;2023-04-25T22:34:38;5.10;79.40
43920;DHT22;29578;51.946;5.874;2023-04-25T22:37:03;5.20;79.50
43920;DHT22;29578;51.946;5.874;2023-04-25T22:39:29;5.10;79.40
43920;DHT22;29578;51.946;5.874;2023-04-25T22:41:54;5.10;79.50
43920;DHT22;29578;51.946;5.874;2023-04-25T22:44:20;5.10;79.50
43920;DHT22;29578;51.946;5.874;2023-04-25T22:46:46;5.00;79.50
43920;DHT22;29578;51.946;5.874;2023-04-25T22:49:12;5.00;79.50
43920;DHT22;29578;51.946;5.874;2023-04-25T22:51:38;5.00;79.60
43920;DHT22;29578;51.946;5.874;2023-04-25T22:54:03;5.00;79.60
43920;DHT22;29578;51.946;5.874;2023-04-25T22:56:29;5.00;79.70
43920;DHT22;29578;51.946;5.874;2023-04-25T22:58:55;4.90;79.70
43920;DHT22;29578;51.946;5.874;2023-04-25T23:01:21;4.90;79.70
43920;DHT22;29578;51.946;5.874;2023-04-25T23:03:46;4.90;79.70
43920;DHT22;29578;51.946;5.874;2023-04-25T23:06:12;4.90;79.70
43920;DHT22;29578;51.946;5.874;2023-04-25T23:08:38;4.80;79.80
43920;DHT22;29578;51.946;5.874;2023-04-25T23:11:05;4.80;79.80
43920;DHT22;29578;51.946;5.874;2023-04-25T23:13:32;4.80;79.90
43920;DHT22;29578;51.946;5.874;2023-04-25T23:16:06;4.80;80.00
43920;DHT22;29578;51.946;5.874;2023-04-25T23:18:35;4.70;80.00
43920;DHT22;29578;51.946;5.874;2023-04-25T23:21:01;4.60;80.10
43920;DHT22;29578;51.946;5.874;2023-04-25T23:23:27;4.70;80.20
43920;DHT22;29578;51.946;5.874;2023-04-25T23:25:53;4.60;80.20
43920;DHT22;29578;51.946;5.874;2023-04-25T23:28:19;4.60;80.30
43920;DHT22;29578;51.946;5.874;2023-04-25T23:30:45;4.60;80.40
43920;DHT22;29578;51.946;5.874;2023-04-25T23:33:10;4.50;80.40
43920;DHT22;29578;51.946;5.874;2023-04-25T23:35:37;4.50;80.40
43920;DHT22;29578;51.946;5.874;2023-04-25T23:38:03;4.50;80.50
43920;DHT22;29578;51.946;5.874;2023-04-25T23:40:28;4.50;80.60
43920;DHT22;29578;51.946;5.874;2023-04-25T23:42:56;4.40;80.60
43920;DHT22;29578;51.946;5.874;2023-04-25T23:45:22;4.40;80.60
43920;DHT22;29578;51.946;5.874;2023-04-25T23:47:48;4.40;80.70
43920;DHT22;29578;51.946;5.874;2023-04-25T23:50:14;4.30;80.70
43920;DHT22;29578;51.946;5.874;2023-04-25T23:52:40;4.30;80.70
43920;DHT22;29578;51.946;5.874;2023-04-25T23:55:06;4.30;80.80
43920;DHT22;29578;51.946;5.874;2023-04-25T23:57:31;4.20;80.80
43920;DHT22;29578;51.946;5.874;2023-04-25T23:59:57;4.30;80.90
